sensor_id;sensor_type;location;lat;lon;timestamp;P1;durP1;ratioP1;P2;durP2;ratioP2
48363;SDS011;34170;54.364;18.582;2023-05-16T00:01:39;7.65;;;6.47;;
48363;SDS011;34170;54.364;18.582;2023-05-16T00:04:07;10.75;;;7.57;;
48363;SDS011;34170;54.364;18.582;2023-05-16T00:06:34;8.10;;;6.90;;
48363;SDS011;34170;54.364;18.582;2023-05-16T00:09:02;7.75;;;6.90;;
48363;SDS011;34170;54.364;18.582;2023-05-16T00:15:33;7.35;;;6.18;;
48363;SDS011;34170;54.364;18.582;2023-05-16T00:18:01;9.25;;;6.68;;
48363;SDS011;34170;54.364;18.582;2023-05-16T00:20:29;9.43;;;6.57;;
48363;SDS011;34170;54.364;18.582;2023-05-16T00:22:57;7.10;;;6.15;;
48363;SDS011;34170;54.364;18.582;2023-05-16T00:25:27;8.43;;;6.38;;
48363;SDS011;34170;54.364;18.582;2023-05-16T00:27:54;7.70;;;6.63;;
48363;SDS011;34170;54.364;18.582;2023-05-16T00:30:22;7.63;;;6.32;;
48363;SDS011;34170;54.364;18.582;2023-05-16T00:32:50;8.93;;;6.05;;
48363;SDS011;34170;54.364;18.582;2023-05-16T00:35:18;7.80;;;6.38;;
48363;SDS011;34170;54.364;18.582;2023-05-16T00:37:45;5.95;;;5.25;;
48363;SDS011;34170;54.364;18.582;2023-05-16T00:40:13;7.53;;;6.18;;
48363;SDS011;34170;54.364;18.582;2023-05-16T00:42:41;8.00;;;6.05;;
48363;SDS011;34170;54.364;18.582;2023-05-16T00:45:09;6.80;;;6.07;;
48363;SDS011;34170;54.364;18.582;2023-05-16T00:47:37;7.70;;;6.30;;
48363;SDS011;34170;54.364;18.582;2023-05-16T00:50:05;6.72;;;5.88;;
48363;SDS011;34170;54.364;18.582;2023-05-16T00:52:33;6.68;;;5.75;;
48363;SDS011;34170;54.364;18.582;2023-05-16T00:55:02;6.90;;;5.10;;
48363;SDS011;34170;54.364;18.582;2023-05-16T00:57:31;5.63;;;4.90;;
48363;SDS011;34170;54.364;18.582;2023-05-16T00:59:59;6.90;;;5.65;;
48363;SDS011;34170;54.364;18.582;2023-05-16T01:02:27;6.68;;;5.53;;
48363;SDS011;34170;54.364;18.582;2023-05-16T01:04:55;7.03;;;5.05;;
48363;SDS011;34170;54.364;18.582;2023-05-16T01:07:22;6.18;;;4.85;;
48363;SDS011;34170;54.364;18.582;2023-05-16T01:09:50;6.53;;;5.13;;
48363;SDS011;34170;54.364;18.582;2023-05-16T01:12:37;5.35;;;4.85;;
48363;SDS011;34170;54.364;18.582;2023-05-16T01:15:29;6.50;;;5.53;;
48363;SDS011;34170;54.364;18.582;2023-05-16T01:23:34;6.05;;;5.32;;
48363;SDS011;34170;54.364;18.582;2023-05-16T01:28:53;7.45;;;6.13;;
48363;SDS011;34170;54.364;18.582;2023-05-16T01:31:21;5.78;;;5.05;;
48363;SDS011;34170;54.364;18.582;2023-05-16T01:33:50;6.93;;;5.85;;
48363;SDS011;34170;54.364;18.582;2023-05-16T01:39:21;6.90;;;6.20;;
48363;SDS011;34170;54.364;18.582;2023-05-16T01:47:29;7.28;;;6.07;;
48363;SDS011;34170;54.364;18.582;2023-05-16T01:50:17;7.40;;;6.68;;
48363;SDS011;34170;54.364;18.582;2023-05-16T01:52:52;8.85;;;7.95;;
48363;SDS011;34170;54.364;18.582;2023-05-16T01:58:13;8.70;;;7.50;;
48363;SDS011;34170;54.364;18.582;2023-05-16T02:00:42;9.57;;;8.30;;
48363;SDS011;34170;54.364;18.582;2023-05-16T02:03:11;8.95;;;7.22;;
48363;SDS011;34170;54.364;18.582;2023-05-16T02:05:38;10.75;;;7.97;;
48363;SDS011;34170;54.364;18.582;2023-05-16T02:08:06;8.50;;;6.90;;
48363;SDS011;34170;54.364;18.582;2023-05-16T02:10:35;8.32;;;7.32;;
48363;SDS011;34170;54.364;18.582;2023-05-16T02:13:02;8.98;;;7.20;;
48363;SDS011;34170;54.364;18.582;2023-05-16T02:15:30;9.63;;;8.27;;
48363;SDS011;34170;54.364;18.582;2023-05-16T02:17:58;9.55;;;7.40;;
48363;SDS011;34170;54.364;18.582;2023-05-16T02:20:25;8.57;;;7.68;;
48363;SDS011;34170;54.364;18.582;2023-05-16T02:22:53;9.15;;;7.85;;
48363;SDS011;34170;54.364;18.582;2023-05-16T02:25:20;9.77;;;8.50;;
48363;SDS011;34170;54.364;18.582;2023-05-16T02:27:48;9.10;;;8.02;;
48363;SDS011;34170;54.364;18.582;2023-05-16T02:30:15;9.55;;;7.93;;
48363;SDS011;34170;54.364;18.582;2023-05-16T02:32:42;11.38;;;8.75;;
48363;SDS011;34170;54.364;18.582;2023-05-16T02:35:15;13.60;;;8.35;;
48363;SDS011;34170;54.364;18.582;2023-05-16T02:37:43;8.98;;;7.75;;
48363;SDS011;34170;54.364;18.582;2023-05-16T02:40:10;10.13;;;8.75;;
48363;SDS011;34170;54.364;18.582;2023-05-16T02:42:39;9.65;;;8.65;;
48363;SDS011;34170;54.364;18.582;2023-05-16T02:45:06;10.30;;;8.50;;
48363;SDS011;34170;54.364;18.582;2023-05-16T02:47:34;9.93;;;8.63;;
48363;SDS011;34170;54.364;18.582;2023-05-16T02:50:01;12.57;;;10.05;;
48363;SDS011;34170;54.364;18.582;2023-05-16T02:52:29;12.68;;;10.52;;
48363;SDS011;34170;54.364;18.582;2023-05-16T02:54:57;12.77;;;11.10;;
48363;SDS011;34170;54.364;18.582;2023-05-16T02:57:44;15.23;;;11.43;;
48363;SDS011;34170;54.364;18.582;2023-05-16T03:00:12;13.90;;;11.32;;
48363;SDS011;34170;54.364;18.582;2023-05-16T03:02:42;16.17;;;12.70;;
48363;SDS011;34170;54.364;18.582;2023-05-16T03:05:10;14.65;;;12.20;;
48363;SDS011;34170;54.364;18.582;2023-05-16T03:07:39;15.63;;;12.27;;
48363;SDS011;34170;54.364;18.582;2023-05-16T03:10:07;15.65;;;12.63;;
48363;SDS011;34170;54.364;18.582;2023-05-16T03:12:34;14.95;;;11.73;;
48363;SDS011;34170;54.364;18.582;2023-05-16T03:15:02;14.25;;;11.52;;
48363;SDS011;34170;54.364;18.582;2023-05-16T03:17:30;14.48;;;11.90;;
48363;SDS011;34170;54.364;18.582;2023-05-16T03:19:57;14.95;;;11.32;;
48363;SDS011;34170;54.364;18.582;2023-05-16T03:22:25;15.27;;;11.35;;
48363;SDS011;34170;54.364;18.582;2023-05-16T03:24:52;14.20;;;11.18;;
48363;SDS011;34170;54.364;18.582;2023-05-16T03:27:19;12.25;;;10.32;;
48363;SDS011;34170;54.364;18.582;2023-05-16T03:29:49;14.13;;;10.23;;
48363;SDS011;34170;54.364;18.582;2023-05-16T03:32:16;12.32;;;9.95;;
48363;SDS011;34170;54.364;18.582;2023-05-16T03:34:44;11.40;;;9.55;;
48363;SDS011;34170;54.364;18.582;2023-05-16T03:37:12;7.68;;;6.47;;
48363;SDS011;34170;54.364;18.582;2023-05-16T03:39:41;7.57;;;6.60;;
48363;SDS011;34170;54.364;18.582;2023-05-16T03:42:09;6.25;;;5.13;;
48363;SDS011;34170;54.364;18.582;2023-05-16T03:44:36;5.03;;;4.22;;
48363;SDS011;34170;54.364;18.582;2023-05-16T03:47:04;4.78;;;4.15;;
48363;SDS011;34170;54.364;18.582;2023-05-16T03:49:32;4.28;;;3.60;;
48363;SDS011;34170;54.364;18.582;2023-05-16T03:51:59;3.60;;;2.90;;
48363;SDS011;34170;54.364;18.582;2023-05-16T03:54:27;2.60;;;2.13;;
48363;SDS011;34170;54.364;18.582;2023-05-16T03:56:55;2.03;;;1.83;;
48363;SDS011;34170;54.364;18.582;2023-05-16T03:59:22;1.77;;;1.40;;
48363;SDS011;34170;54.364;18.582;2023-05-16T04:01:49;1.33;;;1.23;;
48363;SDS011;34170;54.364;18.582;2023-05-16T04:04:17;1.98;;;1.60;;
48363;SDS011;34170;54.364;18.582;2023-05-16T04:06:44;3.20;;;1.35;;
48363;SDS011;34170;54.364;18.582;2023-05-16T04:09:11;2.33;;;1.70;;
48363;SDS011;34170;54.364;18.582;2023-05-16T04:11:39;1.92;;;1.38;;
48363;SDS011;34170;54.364;18.582;2023-05-16T04:14:06;1.95;;;1.65;;
48363;SDS011;34170;54.364;18.582;2023-05-16T04:16:34;2.72;;;1.52;;
48363;SDS011;34170;54.364;18.582;2023-05-16T04:19:01;2.35;;;1.33;;
48363;SDS011;34170;54.364;18.582;2023-05-16T04:21:30;3.53;;;1.90;;
48363;SDS011;34170;54.364;18.582;2023-05-16T04:23:57;2.10;;;1.90;;
48363;SDS011;34170;54.364;18.582;2023-05-16T04:26:25;1.83;;;1.65;;
48363;SDS011;34170;54.364;18.582;2023-05-16T04:28:53;2.47;;;1.88;;
48363;SDS011;34170;54.364;18.582;2023-05-16T04:31:21;2.88;;;1.70;;
48363;SDS011;34170;54.364;18.582;2023-05-16T04:33:48;1.67;;;1.55;;
48363;SDS011;34170;54.364;18.582;2023-05-16T04:36:16;2.60;;;1.50;;
48363;SDS011;34170;54.364;18.582;2023-05-16T04:38:43;1.25;;;1.15;;
48363;SDS011;34170;54.364;18.582;2023-05-16T04:41:12;1.92;;;1.10;;
48363;SDS011;34170;54.364;18.582;2023-05-16T04:43:40;1.73;;;1.02;;
48363;SDS011;34170;54.364;18.582;2023-05-16T04:46:08;1.30;;;0.80;;
48363;SDS011;34170;54.364;18.582;2023-05-16T04:48:35;1.63;;;0.50;;
48363;SDS011;34170;54.364;18.582;2023-05-16T04:51:03;1.70;;;0.70;;
48363;SDS011;34170;54.364;18.582;2023-05-16T04:53:30;0.88;;;0.40;;
48363;SDS011;34170;54.364;18.582;2023-05-16T04:55:58;0.70;;;0.50;;
48363;SDS011;34170;54.364;18.582;2023-05-16T04:58:26;0.50;;;0.38;;
48363;SDS011;34170;54.364;18.582;2023-05-16T05:00:54;0.60;;;0.45;;
48363;SDS011;34170;54.364;18.582;2023-05-16T05:03:21;1.95;;;0.40;;
48363;SDS011;34170;54.364;18.582;2023-05-16T05:05:49;1.67;;;0.70;;
48363;SDS011;34170;54.364;18.582;2023-05-16T05:08:17;1.17;;;0.63;;
48363;SDS011;34170;54.364;18.582;2023-05-16T05:10:45;1.00;;;0.63;;
48363;SDS011;34170;54.364;18.582;2023-05-16T05:13:12;1.02;;;0.60;;
48363;SDS011;34170;54.364;18.582;2023-05-16T05:15:40;1.77;;;0.50;;
48363;SDS011;34170;54.364;18.582;2023-05-16T05:18:07;0.95;;;0.40;;
48363;SDS011;34170;54.364;18.582;2023-05-16T05:20:34;0.68;;;0.35;;
48363;SDS011;34170;54.364;18.582;2023-05-16T05:23:02;0.63;;;0.43;;
48363;SDS011;34170;54.364;18.582;2023-05-16T05:25:29;1.27;;;0.82;;
48363;SDS011;34170;54.364;18.582;2023-05-16T05:27:56;0.50;;;0.32;;
48363;SDS011;34170;54.364;18.582;2023-05-16T05:30:24;1.45;;;0.57;;
48363;SDS011;34170;54.364;18.582;2023-05-16T05:32:51;0.95;;;0.45;;
48363;SDS011;34170;54.364;18.582;2023-05-16T05:35:20;1.83;;;0.82;;
48363;SDS011;34170;54.364;18.582;2023-05-16T05:37:48;1.25;;;0.77;;
48363;SDS011;34170;54.364;18.582;2023-05-16T05:40:15;1.92;;;0.90;;
48363;SDS011;34170;54.364;18.582;2023-05-16T05:42:42;1.20;;;0.95;;
48363;SDS011;34170;54.364;18.582;2023-05-16T05:45:13;1.77;;;1.05;;
48363;SDS011;34170;54.364;18.582;2023-05-16T05:47:42;1.52;;;0.95;;
48363;SDS011;34170;54.364;18.582;2023-05-16T05:50:10;2.50;;;1.02;;
48363;SDS011;34170;54.364;18.582;2023-05-16T05:52:37;1.70;;;1.42;;
48363;SDS011;34170;54.364;18.582;2023-05-16T05:55:05;1.98;;;1.25;;
48363;SDS011;34170;54.364;18.582;2023-05-16T05:57:32;1.88;;;1.08;;
48363;SDS011;34170;54.364;18.582;2023-05-16T06:00:00;6.60;;;1.70;;
48363;SDS011;34170;54.364;18.582;2023-05-16T06:02:33;1.92;;;1.30;;
48363;SDS011;34170;54.364;18.582;2023-05-16T06:05:01;2.97;;;1.60;;
48363;SDS011;34170;54.364;18.582;2023-05-16T06:07:29;4.88;;;1.75;;
48363;SDS011;34170;54.364;18.582;2023-05-16T06:09:57;3.10;;;1.50;;
48363;SDS011;34170;54.364;18.582;2023-05-16T06:12:25;2.38;;;1.40;;
48363;SDS011;34170;54.364;18.582;2023-05-16T06:14:52;1.98;;;1.20;;
48363;SDS011;34170;54.364;18.582;2023-05-16T06:17:19;1.70;;;1.10;;
48363;SDS011;34170;54.364;18.582;2023-05-16T06:19:47;2.20;;;1.00;;
48363;SDS011;34170;54.364;18.582;2023-05-16T06:22:14;2.70;;;1.13;;
48363;SDS011;34170;54.364;18.582;2023-05-16T06:24:42;1.90;;;1.40;;
48363;SDS011;34170;54.364;18.582;2023-05-16T06:27:09;2.03;;;1.15;;
48363;SDS011;34170;54.364;18.582;2023-05-16T06:29:36;2.97;;;1.08;;
48363;SDS011;34170;54.364;18.582;2023-05-16T06:32:04;2.58;;;0.95;;
48363;SDS011;34170;54.364;18.582;2023-05-16T06:34:32;2.88;;;0.88;;
48363;SDS011;34170;54.364;18.582;2023-05-16T06:36:59;1.42;;;0.90;;
48363;SDS011;34170;54.364;18.582;2023-05-16T06:39:29;2.58;;;1.10;;
48363;SDS011;34170;54.364;18.582;2023-05-16T06:41:56;1.85;;;1.13;;
48363;SDS011;34170;54.364;18.582;2023-05-16T06:44:24;1.67;;;1.20;;
48363;SDS011;34170;54.364;18.582;2023-05-16T06:46:51;4.10;;;2.05;;
48363;SDS011;34170;54.364;18.582;2023-05-16T06:49:19;2.15;;;1.60;;
48363;SDS011;34170;54.364;18.582;2023-05-16T06:51:47;1.75;;;1.20;;
48363;SDS011;34170;54.364;18.582;2023-05-16T06:54:14;3.05;;;1.42;;
48363;SDS011;34170;54.364;18.582;2023-05-16T06:56:42;1.70;;;0.95;;
48363;SDS011;34170;54.364;18.582;2023-05-16T06:59:09;1.92;;;1.30;;
48363;SDS011;34170;54.364;18.582;2023-05-16T07:01:36;1.70;;;1.20;;
48363;SDS011;34170;54.364;18.582;2023-05-16T07:04:04;1.75;;;1.20;;
48363;SDS011;34170;54.364;18.582;2023-05-16T07:06:32;1.98;;;1.15;;
48363;SDS011;34170;54.364;18.582;2023-05-16T07:09:00;3.38;;;1.13;;
48363;SDS011;34170;54.364;18.582;2023-05-16T07:11:28;2.05;;;1.48;;
48363;SDS011;34170;54.364;18.582;2023-05-16T07:13:55;2.38;;;0.85;;
48363;SDS011;34170;54.364;18.582;2023-05-16T07:16:22;1.05;;;0.70;;
48363;SDS011;34170;54.364;18.582;2023-05-16T07:18:50;1.63;;;0.68;;
48363;SDS011;34170;54.364;18.582;2023-05-16T07:21:18;0.80;;;0.30;;
48363;SDS011;34170;54.364;18.582;2023-05-16T07:23:46;2.67;;;0.30;;
48363;SDS011;34170;54.364;18.582;2023-05-16T07:26:13;1.33;;;0.55;;
48363;SDS011;34170;54.364;18.582;2023-05-16T07:28:41;0.80;;;0.40;;
48363;SDS011;34170;54.364;18.582;2023-05-16T07:31:08;0.50;;;0.28;;
48363;SDS011;34170;54.364;18.582;2023-05-16T07:33:36;0.80;;;0.63;;
48363;SDS011;34170;54.364;18.582;2023-05-16T07:36:03;0.57;;;0.35;;
48363;SDS011;34170;54.364;18.582;2023-05-16T07:38:43;0.80;;;0.52;;
48363;SDS011;34170;54.364;18.582;2023-05-16T07:41:11;1.23;;;0.60;;
48363;SDS011;34170;54.364;18.582;2023-05-16T07:43:38;1.45;;;0.90;;
48363;SDS011;34170;54.364;18.582;2023-05-16T07:46:05;1.98;;;0.60;;
48363;SDS011;34170;54.364;18.582;2023-05-16T07:48:33;1.30;;;0.68;;
48363;SDS011;34170;54.364;18.582;2023-05-16T07:51:00;3.05;;;1.38;;
48363;SDS011;34170;54.364;18.582;2023-05-16T07:53:28;2.78;;;1.20;;
48363;SDS011;34170;54.364;18.582;2023-05-16T07:55:55;3.72;;;1.88;;
48363;SDS011;34170;54.364;18.582;2023-05-16T07:58:23;3.53;;;2.20;;
48363;SDS011;34170;54.364;18.582;2023-05-16T08:00:50;4.25;;;3.13;;
48363;SDS011;34170;54.364;18.582;2023-05-16T08:03:17;5.38;;;3.58;;
48363;SDS011;34170;54.364;18.582;2023-05-16T08:05:45;5.50;;;3.80;;
48363;SDS011;34170;54.364;18.582;2023-05-16T08:08:15;4.40;;;3.10;;
48363;SDS011;34170;54.364;18.582;2023-05-16T08:10:42;6.55;;;3.15;;
48363;SDS011;34170;54.364;18.582;2023-05-16T08:13:09;4.50;;;3.33;;
48363;SDS011;34170;54.364;18.582;2023-05-16T08:15:37;4.50;;;2.75;;
48363;SDS011;34170;54.364;18.582;2023-05-16T08:18:05;6.82;;;2.60;;
48363;SDS011;34170;54.364;18.582;2023-05-16T08:20:40;3.67;;;2.75;;
48363;SDS011;34170;54.364;18.582;2023-05-16T08:23:08;3.75;;;3.10;;
48363;SDS011;34170;54.364;18.582;2023-05-16T08:25:35;3.88;;;2.53;;
48363;SDS011;34170;54.364;18.582;2023-05-16T08:28:03;5.13;;;3.45;;
48363;SDS011;34170;54.364;18.582;2023-05-16T08:30:30;3.78;;;3.38;;
48363;SDS011;34170;54.364;18.582;2023-05-16T08:32:58;2.90;;;2.63;;
48363;SDS011;34170;54.364;18.582;2023-05-16T08:35:25;6.45;;;2.97;;
48363;SDS011;34170;54.364;18.582;2023-05-16T08:37:53;3.40;;;2.38;;
48363;SDS011;34170;54.364;18.582;2023-05-16T08:40:21;3.47;;;2.60;;
48363;SDS011;34170;54.364;18.582;2023-05-16T08:45:21;2.53;;;2.00;;
48363;SDS011;34170;54.364;18.582;2023-05-16T08:47:49;2.78;;;1.85;;
48363;SDS011;34170;54.364;18.582;2023-05-16T08:50:20;2.78;;;2.20;;
48363;SDS011;34170;54.364;18.582;2023-05-16T08:52:50;3.60;;;2.00;;
48363;SDS011;34170;54.364;18.582;2023-05-16T08:55:19;4.55;;;2.40;;
48363;SDS011;34170;54.364;18.582;2023-05-16T08:57:48;3.92;;;3.28;;
48363;SDS011;34170;54.364;18.582;2023-05-16T09:00:17;3.65;;;1.60;;
48363;SDS011;34170;54.364;18.582;2023-05-16T09:02:45;2.97;;;2.05;;
48363;SDS011;34170;54.364;18.582;2023-05-16T09:05:14;2.35;;;1.80;;
48363;SDS011;34170;54.364;18.582;2023-05-16T09:07:42;2.65;;;2.30;;
48363;SDS011;34170;54.364;18.582;2023-05-16T09:10:10;3.92;;;1.80;;
48363;SDS011;34170;54.364;18.582;2023-05-16T09:12:39;2.75;;;1.67;;
48363;SDS011;34170;54.364;18.582;2023-05-16T09:15:08;6.35;;;1.70;;
48363;SDS011;34170;54.364;18.582;2023-05-16T09:17:38;1.55;;;1.10;;
48363;SDS011;34170;54.364;18.582;2023-05-16T09:20:14;3.10;;;1.50;;
48363;SDS011;34170;54.364;18.582;2023-05-16T09:22:50;1.50;;;1.30;;
48363;SDS011;34170;54.364;18.582;2023-05-16T09:25:22;2.47;;;1.02;;
48363;SDS011;34170;54.364;18.582;2023-05-16T09:27:58;1.40;;;0.93;;
48363;SDS011;34170;54.364;18.582;2023-05-16T09:30:29;1.80;;;1.10;;
48363;SDS011;34170;54.364;18.582;2023-05-16T09:33:00;3.22;;;1.30;;
48363;SDS011;34170;54.364;18.582;2023-05-16T09:35:27;2.63;;;1.10;;
48363;SDS011;34170;54.364;18.582;2023-05-16T09:37:58;2.45;;;1.02;;
48363;SDS011;34170;54.364;18.582;2023-05-16T09:40:25;1.77;;;0.90;;
48363;SDS011;34170;54.364;18.582;2023-05-16T09:43:00;2.95;;;0.90;;
48363;SDS011;34170;54.364;18.582;2023-05-16T09:45:28;1.73;;;0.90;;
48363;SDS011;34170;54.364;18.582;2023-05-16T09:48:07;3.90;;;1.00;;
48363;SDS011;34170;54.364;18.582;2023-05-16T09:50:36;2.92;;;1.38;;
48363;SDS011;34170;54.364;18.582;2023-05-16T09:53:04;1.67;;;0.88;;
48363;SDS011;34170;54.364;18.582;2023-05-16T09:55:31;2.08;;;1.20;;
48363;SDS011;34170;54.364;18.582;2023-05-16T09:57:59;1.25;;;1.00;;
48363;SDS011;34170;54.364;18.582;2023-05-16T10:00:30;2.17;;;1.10;;
48363;SDS011;34170;54.364;18.582;2023-05-16T10:02:59;5.00;;;1.35;;
48363;SDS011;34170;54.364;18.582;2023-05-16T10:05:32;2.20;;;1.25;;
48363;SDS011;34170;54.364;18.582;2023-05-16T10:08:01;2.85;;;1.52;;
48363;SDS011;34170;54.364;18.582;2023-05-16T10:10:29;4.35;;;1.80;;
48363;SDS011;34170;54.364;18.582;2023-05-16T10:12:58;2.65;;;1.90;;
48363;SDS011;34170;54.364;18.582;2023-05-16T10:15:29;5.57;;;1.88;;
48363;SDS011;34170;54.364;18.582;2023-05-16T10:17:57;2.22;;;1.30;;
48363;SDS011;34170;54.364;18.582;2023-05-16T10:20:26;2.72;;;1.60;;
48363;SDS011;34170;54.364;18.582;2023-05-16T10:22:54;3.90;;;1.58;;
48363;SDS011;34170;54.364;18.582;2023-05-16T10:25:33;5.13;;;2.00;;
48363;SDS011;34170;54.364;18.582;2023-05-16T10:28:07;6.57;;;2.05;;
48363;SDS011;34170;54.364;18.582;2023-05-16T10:30:35;6.07;;;1.40;;
48363;SDS011;34170;54.364;18.582;2023-05-16T10:33:06;1.90;;;1.30;;
48363;SDS011;34170;54.364;18.582;2023-05-16T10:35:35;6.40;;;1.63;;
48363;SDS011;34170;54.364;18.582;2023-05-16T10:38:03;2.67;;;1.70;;
48363;SDS011;34170;54.364;18.582;2023-05-16T10:40:34;5.73;;;2.03;;
48363;SDS011;34170;54.364;18.582;2023-05-16T10:43:04;1.85;;;1.35;;
48363;SDS011;34170;54.364;18.582;2023-05-16T10:45:33;5.05;;;1.90;;
48363;SDS011;34170;54.364;18.582;2023-05-16T10:48:06;4.28;;;2.00;;
48363;SDS011;34170;54.364;18.582;2023-05-16T10:50:41;4.65;;;2.45;;
48363;SDS011;34170;54.364;18.582;2023-05-16T10:53:14;4.03;;;2.20;;
48363;SDS011;34170;54.364;18.582;2023-05-16T11:19:48;6.90;;;3.80;;
48363;SDS011;34170;54.364;18.582;2023-05-16T11:22:27;5.43;;;3.40;;
48363;SDS011;34170;54.364;18.582;2023-05-16T11:25:06;6.60;;;3.50;;
48363;SDS011;34170;54.364;18.582;2023-05-16T11:27:44;4.15;;;3.28;;
48363;SDS011;34170;54.364;18.582;2023-05-16T11:30:13;8.20;;;3.53;;
48363;SDS011;34170;54.364;18.582;2023-05-16T11:32:44;6.03;;;3.70;;
48363;SDS011;34170;54.364;18.582;2023-05-16T11:35:16;8.20;;;4.20;;
48363;SDS011;34170;54.364;18.582;2023-05-16T11:37:44;5.15;;;4.05;;
48363;SDS011;34170;54.364;18.582;2023-05-16T11:40:13;7.78;;;4.65;;
48363;SDS011;34170;54.364;18.582;2023-05-16T11:42:46;7.28;;;4.63;;
48363;SDS011;34170;54.364;18.582;2023-05-16T11:45:17;9.85;;;5.03;;
48363;SDS011;34170;54.364;18.582;2023-05-16T11:47:48;7.97;;;6.28;;
48363;SDS011;34170;54.364;18.582;2023-05-16T11:50:17;11.98;;;6.38;;
48363;SDS011;34170;54.364;18.582;2023-05-16T11:52:52;13.05;;;6.68;;
48363;SDS011;34170;54.364;18.582;2023-05-16T11:55:23;10.68;;;6.80;;
48363;SDS011;34170;54.364;18.582;2023-05-16T11:58:07;11.70;;;7.63;;
48363;SDS011;34170;54.364;18.582;2023-05-16T12:00:36;11.80;;;8.45;;
48363;SDS011;34170;54.364;18.582;2023-05-16T12:03:14;10.18;;;6.60;;
48363;SDS011;34170;54.364;18.582;2023-05-16T12:05:51;11.82;;;7.82;;
48363;SDS011;34170;54.364;18.582;2023-05-16T12:08:20;11.55;;;8.25;;
48363;SDS011;34170;54.364;18.582;2023-05-16T12:10:49;11.32;;;8.15;;
48363;SDS011;34170;54.364;18.582;2023-05-16T12:13:18;11.95;;;8.32;;
48363;SDS011;34170;54.364;18.582;2023-05-16T12:15:47;11.77;;;7.32;;
48363;SDS011;34170;54.364;18.582;2023-05-16T12:18:14;11.20;;;8.45;;
48363;SDS011;34170;54.364;18.582;2023-05-16T12:20:43;14.43;;;8.93;;
48363;SDS011;34170;54.364;18.582;2023-05-16T12:23:11;11.68;;;8.23;;
48363;SDS011;34170;54.364;18.582;2023-05-16T12:25:44;12.57;;;8.30;;
48363;SDS011;34170;54.364;18.582;2023-05-16T12:28:13;10.40;;;7.60;;
48363;SDS011;34170;54.364;18.582;2023-05-16T12:30:41;12.10;;;8.02;;
48363;SDS011;34170;54.364;18.582;2023-05-16T12:33:13;13.45;;;8.45;;
48363;SDS011;34170;54.364;18.582;2023-05-16T12:35:43;17.17;;;8.35;;
48363;SDS011;34170;54.364;18.582;2023-05-16T12:38:12;12.65;;;7.35;;
48363;SDS011;34170;54.364;18.582;2023-05-16T12:40:41;14.85;;;7.72;;
48363;SDS011;34170;54.364;18.582;2023-05-16T12:43:16;11.02;;;7.47;;
48363;SDS011;34170;54.364;18.582;2023-05-16T12:45:50;11.57;;;7.97;;
48363;SDS011;34170;54.364;18.582;2023-05-16T12:48:20;14.70;;;7.47;;
48363;SDS011;34170;54.364;18.582;2023-05-16T12:50:48;14.57;;;8.18;;
48363;SDS011;34170;54.364;18.582;2023-05-16T12:53:17;14.48;;;8.27;;
48363;SDS011;34170;54.364;18.582;2023-05-16T12:55:45;11.25;;;8.25;;
48363;SDS011;34170;54.364;18.582;2023-05-16T12:58:12;13.13;;;8.35;;
48363;SDS011;34170;54.364;18.582;2023-05-16T13:00:40;11.45;;;7.63;;
48363;SDS011;34170;54.364;18.582;2023-05-16T13:03:07;11.85;;;8.50;;
48363;SDS011;34170;54.364;18.582;2023-05-16T13:05:35;10.88;;;7.82;;
48363;SDS011;34170;54.364;18.582;2023-05-16T13:08:02;11.70;;;8.50;;
48363;SDS011;34170;54.364;18.582;2023-05-16T13:10:30;13.75;;;8.93;;
48363;SDS011;34170;54.364;18.582;2023-05-16T13:12:57;12.65;;;8.65;;
48363;SDS011;34170;54.364;18.582;2023-05-16T13:15:26;13.80;;;8.60;;
48363;SDS011;34170;54.364;18.582;2023-05-16T13:17:54;13.52;;;8.77;;
48363;SDS011;34170;54.364;18.582;2023-05-16T13:20:22;13.40;;;8.68;;
48363;SDS011;34170;54.364;18.582;2023-05-16T13:22:49;13.63;;;8.40;;
48363;SDS011;34170;54.364;18.582;2023-05-16T13:25:17;16.50;;;8.98;;
48363;SDS011;34170;54.364;18.582;2023-05-16T13:27:44;13.95;;;8.95;;
48363;SDS011;34170;54.364;18.582;2023-05-16T13:30:12;15.25;;;9.65;;
48363;SDS011;34170;54.364;18.582;2023-05-16T13:32:40;17.45;;;9.88;;
48363;SDS011;34170;54.364;18.582;2023-05-16T13:35:08;13.98;;;8.70;;
48363;SDS011;34170;54.364;18.582;2023-05-16T13:37:36;15.77;;;9.63;;
48363;SDS011;34170;54.364;18.582;2023-05-16T13:40:04;15.02;;;8.75;;
48363;SDS011;34170;54.364;18.582;2023-05-16T13:42:35;14.95;;;8.82;;
48363;SDS011;34170;54.364;18.582;2023-05-16T13:45:05;15.13;;;9.53;;
48363;SDS011;34170;54.364;18.582;2023-05-16T13:47:34;16.48;;;8.63;;
48363;SDS011;34170;54.364;18.582;2023-05-16T13:50:02;14.38;;;8.30;;
48363;SDS011;34170;54.364;18.582;2023-05-16T13:52:35;15.07;;;9.13;;
48363;SDS011;34170;54.364;18.582;2023-05-16T13:55:04;14.30;;;8.35;;
48363;SDS011;34170;54.364;18.582;2023-05-16T13:57:32;13.88;;;8.68;;
48363;SDS011;34170;54.364;18.582;2023-05-16T14:00:00;15.55;;;8.18;;
48363;SDS011;34170;54.364;18.582;2023-05-16T14:02:38;13.95;;;8.20;;
48363;SDS011;34170;54.364;18.582;2023-05-16T14:05:06;15.27;;;8.68;;
48363;SDS011;34170;54.364;18.582;2023-05-16T14:07:35;12.25;;;8.98;;
48363;SDS011;34170;54.364;18.582;2023-05-16T14:10:03;17.17;;;8.60;;
48363;SDS011;34170;54.364;18.582;2023-05-16T14:12:33;15.65;;;8.82;;
48363;SDS011;34170;54.364;18.582;2023-05-16T14:15:00;12.38;;;8.68;;
48363;SDS011;34170;54.364;18.582;2023-05-16T14:17:28;13.82;;;8.65;;
48363;SDS011;34170;54.364;18.582;2023-05-16T14:19:55;14.38;;;8.45;;
48363;SDS011;34170;54.364;18.582;2023-05-16T14:22:23;16.10;;;9.45;;
48363;SDS011;34170;54.364;18.582;2023-05-16T14:24:50;15.35;;;8.55;;
48363;SDS011;34170;54.364;18.582;2023-05-16T14:27:18;12.68;;;8.60;;
48363;SDS011;34170;54.364;18.582;2023-05-16T14:29:45;14.75;;;9.32;;
48363;SDS011;34170;54.364;18.582;2023-05-16T14:32:14;14.73;;;9.02;;
48363;SDS011;34170;54.364;18.582;2023-05-16T14:34:42;15.23;;;9.00;;
48363;SDS011;34170;54.364;18.582;2023-05-16T14:37:10;15.32;;;8.57;;
48363;SDS011;34170;54.364;18.582;2023-05-16T14:39:37;15.23;;;8.25;;
48363;SDS011;34170;54.364;18.582;2023-05-16T14:42:05;18.38;;;9.40;;
48363;SDS011;34170;54.364;18.582;2023-05-16T14:44:34;11.88;;;8.27;;
48363;SDS011;34170;54.364;18.582;2023-05-16T14:47:02;14.52;;;8.20;;
48363;SDS011;34170;54.364;18.582;2023-05-16T14:49:30;14.52;;;8.65;;
48363;SDS011;34170;54.364;18.582;2023-05-16T14:51:58;14.30;;;7.85;;
48363;SDS011;34170;54.364;18.582;2023-05-16T14:54:25;11.73;;;8.35;;
48363;SDS011;34170;54.364;18.582;2023-05-16T14:56:53;16.30;;;7.85;;
48363;SDS011;34170;54.364;18.582;2023-05-16T14:59:21;14.57;;;7.80;;
48363;SDS011;34170;54.364;18.582;2023-05-16T15:01:48;11.38;;;7.40;;
48363;SDS011;34170;54.364;18.582;2023-05-16T15:04:16;14.65;;;7.65;;
48363;SDS011;34170;54.364;18.582;2023-05-16T15:06:43;12.23;;;8.10;;
48363;SDS011;34170;54.364;18.582;2023-05-16T15:09:11;13.93;;;7.75;;
48363;SDS011;34170;54.364;18.582;2023-05-16T15:11:39;14.80;;;8.07;;
48363;SDS011;34170;54.364;18.582;2023-05-16T15:14:07;14.98;;;8.05;;
48363;SDS011;34170;54.364;18.582;2023-05-16T15:16:35;12.43;;;8.32;;
48363;SDS011;34170;54.364;18.582;2023-05-16T15:19:02;13.93;;;8.15;;
48363;SDS011;34170;54.364;18.582;2023-05-16T15:21:30;12.43;;;7.32;;
48363;SDS011;34170;54.364;18.582;2023-05-16T15:23:58;13.50;;;6.88;;
48363;SDS011;34170;54.364;18.582;2023-05-16T15:26:25;13.90;;;8.40;;
48363;SDS011;34170;54.364;18.582;2023-05-16T15:28:53;18.23;;;11.05;;